createdAt,value
2018-02-22T00:00:27.884Z,72.69
2018-02-22T00:06:33.134Z,73.18
2018-02-22T00:12:37.775Z,72.64
2018-02-22T00:18:42.939Z,72.45
2018-02-22T00:24:47.662Z,72.32
2018-02-22T00:30:56.823Z,71.90
2018-02-22T00:37:02.186Z,72.04
2018-02-22T00:43:07.536Z,72.10
2018-02-22T00:49:12.668Z,71.62
2018-02-22T00:55:17.624Z,71.88
2018-02-22T01:01:26.481Z,71.57
2018-02-22T01:07:31.261Z,71.52
2018-02-22T01:13:35.917Z,71.85
2018-02-22T01:19:40.565Z,71.90
2018-02-22T01:25:45.218Z,71.41
2018-02-22T01:31:54.087Z,71.74
2018-02-22T01:38:00.481Z,71.76
2018-02-22T01:44:06.317Z,71.75
2018-02-22T01:50:13.143Z,71.93
2018-02-22T01:56:18.210Z,72.46
2018-02-22T02:02:26.440Z,72.60
2018-02-22T02:08:32.169Z,72.22
2018-02-22T02:14:38.702Z,72.13
2018-02-22T02:20:43.856Z,72.47
2018-02-22T02:26:50.569Z,72.54
2018-02-22T02:32:56.612Z,72.84
2018-02-22T02:39:02.275Z,72.74
2018-02-22T02:45:07.055Z,72.90
2018-02-22T02:51:12.796Z,72.82
2018-02-22T02:57:19.619Z,72.86
2018-02-22T03:03:26.205Z,73.14
2018-02-22T03:09:31.148Z,73.53
2018-02-22T03:15:35.832Z,73.32
2018-02-22T03:21:40.556Z,73.48
2018-02-22T03:27:47.223Z,73.79
2018-02-22T03:33:53.665Z,73.77
2018-02-22T03:39:58.679Z,74.25
2018-02-22T03:46:03.333Z,74.64
2018-02-22T03:52:08.300Z,74.64
2018-02-22T03:58:13.664Z,74.40
2018-02-22T04:04:18.752Z,75.08
2018-02-22T04:10:25.417Z,75.13
2018-02-22T04:16:30.506Z,74.75
2018-02-22T04:22:36.850Z,74.55
2018-02-22T04:28:42.125Z,75.02
2018-02-22T04:34:46.798Z,75.03
2018-02-22T04:40:52.586Z,75.13
2018-02-22T04:46:59.201Z,74.91
2018-02-22T04:53:04.967Z,76.11
2018-02-22T04:59:09.624Z,76.95
2018-02-22T05:05:14.460Z,78.13
2018-02-22T05:11:19.087Z,77.51
2018-02-22T05:17:26.467Z,77.34
2018-02-22T05:23:34.037Z,77.72
2018-02-22T05:29:39.514Z,77.23
2018-02-22T05:35:47.209Z,76.47
2018-02-22T05:41:54.029Z,76.71
2018-02-22T05:48:00.746Z,75.77
2018-02-22T05:54:06.612Z,76.67
2018-02-22T06:00:12.312Z,77.26
2018-02-22T06:06:17.595Z,77.86
2018-02-22T06:12:26.735Z,78.50
2018-02-22T06:18:31.769Z,78.31
2018-02-22T06:24:36.388Z,78.25
2018-02-22T06:30:41.029Z,77.73
2018-02-22T06:36:45.739Z,77.54
2018-02-22T06:42:50.485Z,77.27
2018-02-22T06:48:55.531Z,77.15
2018-02-22T06:55:00.977Z,77.00
2018-02-22T07:01:05.803Z,76.96
2018-02-22T07:07:10.601Z,76.49
2018-02-22T07:13:15.396Z,76.26
2018-02-22T07:19:21.798Z,76.41
2018-02-22T07:25:26.859Z,76.42
2018-02-22T07:31:33.089Z,75.92
2018-02-22T07:37:38.559Z,75.54
2018-02-22T07:43:43.206Z,75.07
2018-02-22T07:49:47.820Z,74.85
2018-02-22T07:55:55.379Z,74.37
2018-02-22T08:02:01.052Z,74.42
2018-02-22T08:08:05.760Z,74.60
2018-02-22T08:14:10.424Z,74.25
2018-02-22T08:20:16.720Z,74.52
2018-02-22T08:26:25.699Z,74.37
2018-02-22T08:32:30.665Z,74.49
2018-02-22T08:38:36.810Z,74.39
2018-02-22T08:44:41.967Z,74.37
2018-02-22T08:50:47.300Z,74.37
2018-02-22T08:56:54.191Z,74.32
2018-02-22T09:02:58.913Z,74.41
2018-02-22T09:09:03.521Z,74.02
2018-02-22T09:15:09.433Z,73.66
2018-02-22T09:21:15.218Z,72.96
2018-02-22T09:27:21.001Z,72.84
2018-02-22T09:33:25.570Z,72.26
2018-02-22T09:39:32.764Z,70.71
2018-02-22T09:45:39.137Z,70.23
2018-02-22T09:51:46.132Z,69.37
2018-02-22T09:57:51.593Z,68.61
2018-02-22T10:03:56.996Z,64.98
2018-02-22T10:10:01.674Z,60.92
2018-02-22T10:16:06.608Z,59.64
2018-02-22T10:22:11.283Z,57.65
2018-02-22T10:28:16.023Z,57.21
2018-02-22T10:34:26.878Z,55.49
2018-02-22T10:40:37.198Z,55.76
2018-02-22T10:46:46.687Z,56.96
2018-02-22T10:52:58.501Z,55.26
2018-02-22T10:59:03.210Z,56.25
2018-02-22T11:05:08.613Z,56.19
2018-02-22T11:11:14.071Z,56.88
2018-02-22T11:17:19.786Z,55.78
2018-02-22T11:23:25.699Z,55.90
2018-02-22T11:29:30.518Z,56.60
2018-02-22T11:35:36.012Z,54.48
2018-02-22T11:41:40.668Z,53.65
2018-02-22T11:47:48.436Z,53.41
2018-02-22T11:53:57.916Z,53.96
2018-02-22T12:00:05.388Z,52.80
2018-02-22T12:06:16.306Z,53.23
2018-02-22T12:12:24.028Z,52.85
2018-02-22T12:18:29.138Z,52.56
2018-02-22T12:24:33.752Z,51.82
2018-02-22T12:30:39.868Z,49.83
2018-02-22T12:36:55.859Z,48.44
2018-02-22T12:43:01.669Z,45.67
2018-02-22T12:49:32.834Z,41.43
2018-02-22T12:55:44.100Z,38.26
2018-02-22T13:01:51.514Z,38.26
2018-02-22T13:07:57.082Z,41.21
2018-02-22T13:14:08.144Z,43.74
2018-02-22T13:20:19.372Z,44.18
2018-02-22T13:26:31.197Z,44.02
2018-02-22T13:32:55.199Z,42.05
2018-02-22T13:39:18.975Z,43.16
2018-02-22T13:45:34.235Z,41.84
2018-02-22T13:51:39.644Z,40.88
2018-02-22T13:57:44.423Z,41.08
2018-02-22T14:03:52.434Z,40.98
2018-02-22T14:19:42.207Z,39.19
2018-02-22T14:25:46.929Z,40.45
2018-02-22T14:32:01.321Z,41.00
2018-02-22T14:54:21.470Z,43.93
2018-02-22T15:00:29.269Z,44.12
2018-02-22T15:22:49.464Z,49.12
2018-02-22T15:28:54.883Z,48.75
2018-02-22T15:34:59.568Z,48.67
2018-02-22T15:41:08.481Z,49.27
2018-02-22T15:47:13.351Z,47.92
2018-02-22T15:53:18.365Z,49.04
2018-02-22T15:59:23.971Z,50.06
2018-02-22T16:05:32.286Z,50.17
2018-02-22T16:11:37.316Z,50.71
2018-02-22T16:17:42.040Z,52.12
2018-02-22T16:23:46.649Z,53.34
2018-02-22T16:29:51.522Z,53.39
2018-02-22T16:35:56.150Z,54.20
2018-02-22T16:42:01.022Z,54.56
2018-02-22T16:48:05.612Z,56.03
2018-02-22T16:54:10.375Z,56.95
2018-02-22T17:00:17.470Z,57.54
2018-02-22T17:06:25.393Z,58.85
2018-02-22T17:12:30.074Z,59.67
2018-02-22T17:18:34.690Z,59.65
2018-02-22T17:24:40.142Z,60.10
2018-02-22T17:30:50.207Z,61.02
2018-02-22T17:37:10.549Z,61.91
2018-02-22T17:43:15.192Z,62.72
2018-02-22T17:49:23.821Z,62.69
2018-02-22T17:55:28.553Z,62.10
2018-02-22T18:01:33.226Z,61.20
2018-02-22T18:07:38.030Z,60.97
2018-02-22T18:13:45.049Z,61.37
2018-02-22T18:19:57.608Z,61.50
2018-02-22T18:26:03.041Z,62.47
2018-02-22T18:32:07.819Z,62.92
2018-02-22T18:38:12.567Z,64.39
2018-02-22T18:44:24.498Z,64.82
2018-02-22T18:50:30.661Z,65.60
2018-02-22T18:56:39.229Z,66.27
2018-02-22T19:02:44.079Z,66.57
2018-02-22T19:08:49.036Z,66.74
2018-02-22T19:14:57.467Z,66.75
2018-02-22T19:21:02.927Z,67.78
2018-02-22T19:27:07.600Z,68.21
2018-02-22T19:33:13.509Z,68.76
2018-02-22T19:39:19.430Z,68.61
2018-02-22T19:45:25.126Z,68.88
2018-02-22T19:51:30.666Z,69.52
2018-02-22T19:57:36.219Z,69.84
2018-02-22T20:03:41.254Z,70.00
2018-02-22T20:09:45.991Z,69.60
2018-02-22T20:15:51.741Z,69.14
2018-02-22T20:21:56.531Z,69.25
2018-02-22T20:28:01.330Z,69.33
2018-02-22T20:34:07.025Z,69.15
2018-02-22T20:40:11.939Z,69.44
2018-02-22T20:46:16.699Z,69.61
2018-02-22T20:52:23.631Z,69.42
2018-02-22T20:58:36.725Z,70.23
2018-02-22T21:04:42.964Z,70.85
2018-02-22T21:10:50.320Z,70.74
2018-02-22T21:16:57.149Z,70.83
2018-02-22T21:23:04.051Z,70.45
2018-02-22T21:29:08.879Z,70.43
2018-02-22T21:35:14.283Z,71.02
2018-02-22T21:41:19.786Z,71.50
2018-02-22T21:47:24.468Z,71.74
2018-02-22T21:53:29.108Z,71.08
2018-02-22T21:59:33.775Z,71.30
2018-02-22T22:05:38.539Z,70.88
2018-02-22T22:11:45.220Z,72.55
2018-02-22T22:17:50.175Z,71.14
2018-02-22T22:23:54.879Z,71.09
2018-02-22T22:30:01.604Z,70.74
2018-02-22T22:36:08.573Z,70.60
2018-02-22T22:42:14.089Z,70.34
2018-02-22T22:48:19.120Z,69.94
2018-02-22T22:54:24.142Z,69.77
2018-02-22T23:00:28.750Z,70.16
2018-02-22T23:06:33.401Z,70.03
2018-02-22T23:12:38.866Z,69.95
2018-02-22T23:18:45.887Z,69.79
2018-02-22T23:24:56.451Z,69.06
2018-02-22T23:31:02.085Z,69.17
2018-02-22T23:37:06.748Z,68.25
2018-02-22T23:43:11.458Z,68.67
2018-02-22T23:49:16.374Z,68.62
2018-02-22T23:55:24.304Z,67.79
